• Join FlightAware (Why Join?)
  • Login
  • US Flag 
09:53PM EDT


 

Airport Tracker/Info


-or-


 

Live Flight TrackerFlight Track Log ✈ FDX1428 ✈ 23-Feb-2012 ✈ KPHL - KLCK

Flight Track Log - Related Links

Times and Time Zones

All times are in EST time to prevent confusion due to time zone crossing. See the FDX1428 flight status page for this flight to view local times or setup timezone preferences in your user account.

Time Position Orientation Groundspeed Altitude Reporting Facility
EST Latitude Longitude Course Direction KTS MPH feet Rate Location/Type
07:31AM 39.8604 -75.2739 250° West 131 151 2,500  Level FlightAware ADS-B
07:32AM 39.8565 -75.2881 250° West 170 196 3,000 2,100 Climbing FlightAware ADS-B
07:32AM 39.8514 -75.3060 249° West 201 231 3,600 3,660 Climbing FlightAware ADS-B
07:32AM 39.8455 -75.3255 249° West 227 261 4,900 5,400 Climbing FlightAware ADS-B
07:32AM 39.8387 -75.3487 260° West 230 265 6,600 5,760 Climbing FlightAware ADS-B
07:33AM 39.8357 -75.3698 281° West 227 261 8,100 5,220 Climbing FlightAware ADS-B
07:33AM 39.8387 -75.3899 289° West 221 254 9,300 2,760 Climbing FlightAware ADS-B
07:34AM 39.8509 -75.4366 289° West 236 272 10,400 1,020 Climbing FlightAware ADS-B
07:34AM 39.8629 -75.4833 290° West 284 327 10,400  Level FlightAware ADS-B
07:35AM 39.8774 -75.5350 291° West 307 353 10,400 240 Level FlightAware ADS-B
07:35AM 39.8931 -75.5872 291° West 313 360 10,700 2,880 Climbing FlightAware ADS-B
07:36AM 39.9089 -75.6398 281° West 310 357 13,300 4,860 Climbing FlightAware ADS-B
07:36AM 39.9176 -75.6958 269° West 303 349 15,700 4,620 Climbing FlightAware ADS-B
07:37AM 39.9164 -75.7750 268° West 313 360 18,900 4,320 Climbing FlightAware ADS-B
07:37AM 39.9147 -75.8362 268° West 330 380 20,900 3,780 Climbing FlightAware ADS-B
07:38AM 39.9131 -75.9026 268° West 351 404 22,900 3,540 Climbing FlightAware ADS-B
07:38AM 39.9116 -75.9689 268° West 347 399 24,700 3,480 Climbing FlightAware ADS-B
07:39AM 39.9103 -76.0317 268° West 355 409 26,500 2,880 Climbing FlightAware ADS-B
07:39AM 39.9087 -76.0989 269° West 353 406 27,700 2,460 Climbing FlightAware ADS-B
07:40AM 39.9073 -76.1679 271° West 336 387 29,200 1,860 Climbing FlightAware ADS-B
07:41AM 39.9087 -76.2534 274° West 348 400 30,000 600 Climbing FlightAware ADS-B
07:41AM 39.9123 -76.3217 274° West 341 392 30,000  Level FlightAware ADS-B
07:42AM 39.9156 -76.3903 273° West 336 387 30,000  Level FlightAware ADS-B
07:42AM 39.9181 -76.4535 273° West 342 394 30,000  Level FlightAware ADS-B
07:43AM 39.9206 -76.5168 273° West 343 395 30,000  Level FlightAware ADS-B
07:43AM 39.9234 -76.5847 273° West 389 448 30,000  Level FlightAware ADS-B
07:44AM 39.9269 -76.6657 273° West 343 395 30,000  Level FlightAware ADS-B
07:45AM 39.9300 -76.7563 272° West 349 402 30,000  Level FlightAware ADS-B
07:45AM 39.9322 -76.8433 273° West 351 404 30,000  Level New York Center
07:46AM 39.9381 -76.9711 272° West 351 404 30,000  Level New York Center
07:47AM 39.9419 -77.0933 273° West 351 404 30,000  Level New York Center
07:50AM 39.9528 -77.3628 273° West 341 392 30,000  Level Cleveland Center
07:51AM 39.9583 -77.4872 272° West 347 399 30,000  Level Cleveland Center
07:52AM 39.9617 -77.6089 272° West 347 399 30,000  Level Cleveland Center
07:53AM 39.9647 -77.7333 273° West 347 399 30,000  Level Cleveland Center
07:54AM 39.9700 -77.8578 271° West 347 399 30,000  Level Cleveland Center
07:55AM 39.9708 -77.9850 272° West 347 399 30,000  Level Cleveland Center
07:56AM 39.9736 -78.1069 273° West 347 399 30,000  Level Cleveland Center
07:57AM 39.9783 -78.2314 271° West 347 399 30,000  Level Cleveland Center
07:58AM 39.9806 -78.3506 272° West 347 399 30,000  Level Cleveland Center
07:59AM 39.9831 -78.4725 273° West 347 399 30,000  Level Cleveland Center
08:00AM 39.9872 -78.5942 271° West 347 399 30,000  Level Cleveland Center
08:01AM 39.9894 -78.7161 271° West 347 399 30,000  Level Cleveland Center
08:02AM 39.9914 -78.8408 272° West 347 399 30,000  Level Cleveland Center
08:03AM 39.9953 -78.9597 272° West 347 399 30,000  Level Cleveland Center
08:04AM 39.9989 -79.0817 271° West 347 399 30,000  Level Cleveland Center
08:05AM 40.0006 -79.2064 272° West 347 399 30,000  Level Cleveland Center
08:06AM 40.0039 -79.3308 272° West 347 399 30,000  Level Cleveland Center
08:07AM 40.0075 -79.4528 271° West 347 399 30,000  Level Cleveland Center
08:08AM 40.0086 -79.5775 271° West 347 399 30,000  Level Cleveland Center
08:09AM 40.0094 -79.7022 271° West 347 399 30,000  Level Cleveland Center
08:10AM 40.0103 -79.8161 272° West 347 399 30,000  Level Cleveland Center
08:11AM 40.0133 -79.9433 272° West 347 399 30,000  Level Cleveland Center
08:12AM 40.0161 -80.0653 270° West 347 399 30,000 -420 Level Cleveland Center
08:13AM 40.0164 -80.1900 272° West 347 399 29,200 -960 Descending Cleveland Center
08:14AM 40.0189 -80.3119 269° West 347 399 28,100 -1,140 Descending Cleveland Center
08:15AM 40.0169 -80.4339 270° West 347 399 27,000 -1,140 Descending Cleveland Center
08:16AM 40.0172 -80.5533 271° West 342 394 25,900 -1,140 Descending Cleveland Center
08:17AM 40.0192 -80.6725 270° West 337 388 24,800 -960 Descending Cleveland Center
08:18AM 40.0189 -80.7917 266° West 337 388 24,000 -900 Descending Cleveland Center
08:19AM 40.0125 -80.9056 263° West 326 375 23,100 -1,080 Descending Cleveland Center
08:20AM 40.0017 -81.0194 263° West 326 375 21,900 -1,200 Descending Cleveland Center
08:21AM 39.9875 -81.1781 262° West 326 375 20,300 -1,200 Descending Indianapolis Center
08:22AM 39.9750 -81.2894 263° West 319 367 19,100 -1,200 Descending Indianapolis Center
08:23AM 39.9647 -81.4008 264° West 317 365 17,900 -1,320 Descending Indianapolis Center
08:24AM 39.9542 -81.5231 263° West 334 384 16,500 -1,320 Descending Indianapolis Center
08:25AM 39.9436 -81.6400 263° West 329 379 15,300 -1,260 Descending Indianapolis Center
08:26AM 39.9331 -81.7511 263° West 324 373 14,000 -1,320 Descending Indianapolis Center
08:27AM 39.9222 -81.8625 262° West 324 373 12,700 -1,320 Descending Indianapolis Center
08:28AM 39.9111 -81.9708 264° West 311 358 11,400 -1,380 Descending Indianapolis Center
08:29AM 39.9022 -82.0822 260° West 314 361 10,200 -900 Descending Indianapolis Center
08:30AM 39.8906 -82.1717 273° West 317 365 10,000 -600 Descending Indianapolis Center
08:31AM 39.8964 -82.2989 273° West 285 328 9,000 -1,080 Descending Indianapolis Center
08:32AM 39.8989 -82.3556 273° West 243 280 7,900 -1,860 Descending Indianapolis Center
08:33AM 39.9019 -82.4475 271° West 238 274 5,900 -1,500 Descending Indianapolis Center
08:34AM 39.9028 -82.5314 275° West 234 269 4,900 -1,140 Descending Indianapolis Center
08:35AM 39.9075 -82.6017 271° West 199 229 3,600 -960 Descending Indianapolis Center
08:36AM 39.9081 -82.6719 271° West 196 226 3,000 -600 Descending Indianapolis Center
08:37AM 39.9086 -82.7397 255° West 192 221 2,500 -240 Descending Indianapolis Center
08:38AM 39.8922 -82.8183 240° Southwest 180 207 2,500 -180 Level Indianapolis Center
08:39AM 39.8781 -82.8508 225° Southwest 158 182 2,200 -660 Descending Indianapolis Center
08:40AM 39.8531 -82.8836 225° Southwest 129 148 1,500 -720 Descending Indianapolis Center